Time;durP1;ratioP1;P1;durP2;ratioP2;P2;SDS_P1;SDS_P2;PMS_P1;PMS_P2;Temp;Humidity;BMP_temperature;BMP_pressure;BME280_temperature;BME280_humidity;BME280_pressure;Samples;Min_cycle;Max_cycle;Signal;HPM_P1;HPM_P2
2023/05/24 00:02:50;;;;;;;;;;;;;;;9.14;80.40;101256.97;5051083;28;20122;-70
2023/05/24 00:05:54;;;;;;;12.37;4.27;;;;;;;9.02;80.86;101248.63;5053275;28;19920;-71
2023/05/24 00:08:57;;;;;;;;;;;;;;;9.21;80.24;101251.47;5053854;28;20611;-71
2023/05/24 00:12:00;;;;;;;9.68;3.90;;;;;;;9.11;81.00;101263.13;5039909;28;19920;-72
2023/05/24 00:15:04;;;;;;;8.38;3.90;;;;;;;9.15;80.52;101256.03;5052497;28;20102;-71
2023/05/24 00:18:07;;;;;;;8.65;2.97;;;;;;;9.01;80.92;101265.19;5052700;28;20047;-71
2023/05/24 00:21:10;;;;;;;;;;;;;;;9.29;79.97;101261.66;5052967;28;20136;-71
2023/05/24 00:24:15;;;;;;;9.65;3.05;;;;;;;9.21;80.23;101258.44;5051730;28;20024;-71
2023/05/24 00:27:19;;;;;;;11.57;4.00;;;;;;;8.92;80.86;101262.91;5052625;28;20051;-71
2023/05/24 00:30:22;;;;;;;;;;;;;;;9.11;80.14;101267.50;5040636;28;20091;-71
2023/05/24 00:33:26;;;;;;;8.48;3.53;;;;;;;9.07;80.25;101272.81;5040212;28;19966;-71
2023/05/24 00:36:29;;;;;;;7.32;2.90;;;;;;;8.84;81.54;101276.22;5039744;28;20191;-71
2023/05/24 00:39:33;;;;;;;;;;;;;;;8.89;81.47;101270.81;5052657;28;20051;-71
2023/05/24 00:42:36;;;;;;;12.67;3.70;;;;;;;9.03;80.09;101272.97;5052191;28;19962;-71
2023/05/24 00:45:39;;;;;;;14.93;4.78;;;;;;;8.87;80.15;101267.44;5052313;28;20044;-71
2023/05/24 00:48:44;;;;;;;10.43;3.38;;;;;;;8.72;81.06;101278.38;5051979;28;20523;-71
2023/05/24 00:51:51;;;;;;;11.05;4.22;;;;;;;8.50;81.94;101278.19;5039869;28;20132;-71
2023/05/24 00:54:55;;;;;;;9.57;4.00;;;;;;;8.61;81.62;101276.97;5052406;28;20086;-71
2023/05/24 00:57:58;;;;;;;11.25;3.20;;;;;;;8.53;81.86;101273.72;5051923;28;20117;-71
2023/05/24 01:01:02;;;;;;;;;;;;;;;8.51;82.01;101274.69;5052338;28;20051;-72
2023/05/24 01:04:06;;;;;;;10.25;3.47;;;;;;;8.50;82.48;101270.38;5051118;28;19923;-71
2023/05/24 01:07:32;;;;;;;10.30;3.45;;;;;;;8.55;81.66;101271.94;5051929;28;20451;-71
2023/05/24 01:11:00;;;;;;;10.35;4.18;;;;;;;8.53;82.45;101268.53;5051839;28;20463;-71
2023/05/24 01:14:17;;;;;;;12.00;3.38;;;;;;;8.50;81.91;101263.41;5052049;28;20507;-71
2023/05/24 01:17:31;;;;;;;13.30;3.97;;;;;;;8.39;82.46;101265.47;5039191;28;20120;-71
2023/05/24 01:20:37;;;;;;;10.27;4.18;;;;;;;8.40;82.55;101269.81;5039745;28;20091;-71
2023/05/24 01:24:21;;;;;;;12.48;4.55;;;;;;;8.39;82.30;101260.28;5052177;28;20064;-71
2023/05/24 01:27:26;;;;;;;12.90;3.80;;;;;;;8.39;82.53;101262.88;5002214;28;20048;-71
2023/05/24 01:30:29;;;;;;;10.07;3.65;;;;;;;8.31;83.08;101268.31;5043390;28;20720;-71
2023/05/24 01:33:32;;;;;;;14.07;4.47;;;;;;;8.50;82.59;101260.78;5031864;28;20121;-71
2023/05/24 01:36:36;;;;;;;12.63;3.85;;;;;;;8.59;81.51;101267.47;5019595;28;20049;-72
2023/05/24 01:39:39;;;;;;;;;;;;;;;8.45;82.72;101260.06;5019903;28;20044;-72
2023/05/24 01:42:45;;;;;;;8.85;3.38;;;;;;;8.26;83.23;101258.91;5030934;28;19924;-71
2023/05/24 01:46:16;;;;;;;9.30;3.60;;;;;;;8.27;83.38;101260.66;5031753;28;20095;-71
2023/05/24 01:49:26;;;;;;;8.32;3.33;;;;;;;8.26;83.47;101258.91;5032262;28;20075;-72
2023/05/24 01:52:33;;;;;;;10.27;4.00;;;;;;;8.13;83.87;101258.44;5035319;28;20094;-71
2023/05/24 01:55:39;;;;;;;12.70;3.50;;;;;;;8.27;82.76;101252.84;5035925;28;20083;-71
2023/05/24 01:58:45;;;;;;;6.20;3.03;;;;;;;8.34;81.72;101263.00;5035604;28;20071;-71
2023/05/24 02:01:49;;;;;;;10.52;3.55;;;;;;;8.22;82.18;101263.38;5023127;28;20096;-71
2023/05/24 02:04:53;;;;;;;;;;;;;;;8.08;83.03;101271.63;5035338;28;20045;-71
2023/05/24 02:07:56;;;;;;;9.77;3.70;;;;;;;8.31;81.64;101273.50;5022972;28;19994;-71
2023/05/24 02:11:01;;;;;;;8.88;3.47;;;;;;;8.10;81.60;101269.84;5023101;28;20508;-72
2023/05/24 02:14:04;;;;;;;9.27;3.13;;;;;;;7.91;82.49;101266.03;5035380;28;20072;-71
2023/05/24 02:17:08;;;;;;;10.15;3.05;;;;;;;7.83;83.04;101273.25;5022716;28;20040;-71
2023/05/24 02:20:12;;;;;;;10.00;3.28;;;;;;;7.85;82.89;101271.47;5022762;28;20106;-71
2023/05/24 02:23:15;;;;;;;12.10;3.65;;;;;;;7.77;83.20;101273.41;5034974;28;20052;-72
2023/05/24 02:26:19;;;;;;;8.77;3.50;;;;;;;7.82;82.99;101275.00;5034969;28;20099;-71
2023/05/24 02:29:22;;;;;;;;;;;;;;;7.83;82.69;101271.47;5035151;28;20076;-71
2023/05/24 02:32:25;;;;;;;12.32;3.53;;;;;;;7.76;83.08;101269.13;5035024;28;19920;-71
2023/05/24 02:35:29;;;;;;;;;;;;;;;8.04;80.81;101272.63;5023080;28;20064;-71
2023/05/24 02:38:32;;;;;;;;;;;;;;;8.14;79.51;101261.00;5035263;28;19920;-71
2023/05/24 02:41:35;;;;;;;;;;;;;;;8.19;78.56;101263.47;5034731;28;19971;-71
2023/05/24 02:44:38;;;;;;;;;;;;;;;8.26;78.28;101256.31;5034754;28;19920;-71
2023/05/24 02:47:41;;;;;;;;;;;;;;;8.31;77.78;101255.28;5035110;28;19928;-71
2023/05/24 02:50:44;;;;;;;;;;;;;;;7.96;79.46;101251.16;5033898;28;19961;-71
2023/05/24 02:53:48;;;;;;;;;;;;;;;7.96;79.73;101248.53;5034903;28;19924;-71
2023/05/24 02:56:52;;;;;;;;;;;;;;;8.12;79.16;101252.38;5034621;28;20000;-71
2023/05/24 02:59:55;;;;;;;;;;;;;;;8.15;77.56;101247.09;5021476;28;19989;-71
2023/05/24 03:03:01;;;;;;;;;;;;;;;8.14;77.20;101255.81;5021682;28;20297;-71
2023/05/24 03:06:06;;;;;;;;;;;;;;;8.15;77.08;101254.91;5028174;28;20241;-71
2023/05/24 03:09:09;;;;;;;;;;;;;;;7.84;78.62;101251.50;5041841;28;19919;-71
2023/05/24 03:12:12;;;;;;;;;;;;;;;7.69;80.16;101258.88;5014707;28;19940;-71
2023/05/24 03:15:15;;;;;;;;;;;;;;;7.85;78.44;101256.69;5002761;28;20281;-72
2023/05/24 03:18:19;;;;;;;;;;;;;;;7.68;78.98;101246.72;5002721;28;20396;-72
2023/05/24 03:21:23;;;;;;;;;;;;;;;7.43;80.80;101253.53;5002212;28;19948;-72
2023/05/24 03:24:27;;;;;;;;;;;;;;;7.21;81.56;101253.25;5014655;28;19924;-72
2023/05/24 03:27:30;;;;;;;;;;;;;;;7.48;80.86;101258.63;5014566;28;19936;-72
2023/05/24 03:30:33;;;;;;;;;;;;;;;7.52;79.73;101253.28;5002459;28;19960;-71
2023/05/24 03:33:36;;;;;;;;;;;;;;;7.27;80.69;101254.84;5002158;28;20340;-72
2023/05/24 03:36:40;;;;;;;;;;;;;;;7.19;81.46;101253.31;5002206;28;19960;-71
2023/05/24 03:39:44;;;;;;;;;;;;;;;7.07;82.47;101255.38;5002118;28;19981;-70
2023/05/24 03:43:00;;;;;;;;;;;;;;;7.04;82.27;101253.69;5001964;28;19924;-70
2023/05/24 03:46:18;;;;;;;;;;;;;;;7.29;79.53;101247.84;5002071;28;20396;-71
2023/05/24 03:49:21;;;;;;;;;;;;;;;7.41;78.76;101252.72;5014220;28;20384;-71
2023/05/24 03:52:25;;;;;;;;;;;;;;;7.56;79.13;101247.09;5001850;28;20262;-70
2023/05/24 03:55:28;;;;;;;;;;;;;;;7.66;78.37;101247.69;5013911;28;20051;-71
2023/05/24 03:58:31;;;;;;;;;;;;;;;7.30;79.67;101267.75;5013924;28;19939;-71
2023/05/24 04:01:37;;;;;;;;;;;;;;;7.36;79.91;101271.06;5013771;28;20016;-71
2023/05/24 04:04:40;;;;;;;;;;;;;;;7.17;80.95;101273.28;5013948;28;19928;-71
2023/05/24 04:07:45;;;;;;;;;;;;;;;7.16;80.96;101274.19;5013867;28;20396;-72
2023/05/24 04:10:48;;;;;;;;;;;;;;;7.30;79.70;101285.97;5001679;28;19923;-71
2023/05/24 04:13:52;;;;;;;;;;;;;;;7.42;78.63;101291.72;5001209;28;19920;-71
2023/05/24 04:16:56;;;;;;;;;;;;;;;7.25;79.46;101301.72;5014086;28;19971;-72
2023/05/24 04:20:00;;;;;;;;;;;;;;;7.02;81.39;101297.13;5013644;28;20321;-70
2023/05/24 04:23:03;;;;;;;;;;;;;;;7.16;81.48;101297.59;5001461;28;20297;-71
2023/05/24 04:26:08;;;;;;;;;;;;;;;7.31;79.40;101298.13;5001395;28;19968;-72
2023/05/24 04:29:12;;;;;;;;;;;;;;;7.15;80.21;101290.69;5001157;28;19928;-73
2023/05/24 04:32:16;;;;;;;;;;;;;;;7.19;80.98;101291.47;5001333;28;19920;-73
2023/05/24 04:35:22;;;;;;;;;;;;;;;7.10;81.48;101291.69;5000995;28;19968;-69
2023/05/24 04:38:28;;;;;;;;;;;;;;;7.16;80.67;101294.16;5001242;28;19924;-71
2023/05/24 04:41:31;;;;;;;;;;;;;;;7.34;78.87;101303.19;5013422;28;19944;-70
2023/05/24 04:44:34;;;;;;;;;;;;;;;7.40;78.68;101298.72;5012675;28;20442;-70
2023/05/24 04:47:37;;;;;;;;;;;;;;;7.42;78.17;101293.47;5011475;28;19928;-70
2023/05/24 04:50:40;;;;;;;;;;;;;;;7.29;78.57;101289.47;5011375;28;19921;-70
2023/05/24 04:53:43;;;;;;;;;;;;;;;7.17;79.06;101286.28;5011505;28;19920;-70
2023/05/24 04:56:46;;;;;;;;;;;;;;;7.22;78.96;101288.78;5011378;28;20344;-70
2023/05/24 04:59:49;;;;;;;;;;;;;;;7.33;78.64;101291.09;5011231;28;19920;-71
2023/05/24 05:02:52;;;;;;;;;;;;;;;7.47;78.47;101299.41;5012947;28;19948;-70
2023/05/24 05:05:55;;;;;;;;;;;;;;;7.50;78.03;101293.25;5001370;28;19967;-70
2023/05/24 05:08:58;;;;;;;;;;;;;;;7.41;78.60;101300.41;5013474;28;19920;-70
2023/05/24 05:12:02;;;;;;;;;;;;;;;7.38;78.99;101304.84;5013062;28;19930;-70
2023/05/24 05:15:05;;;;;;;;;;;;;;;7.42;79.05;101312.53;5013217;28;19921;-70
2023/05/24 05:18:09;;;;;;;;;;;;;;;7.61;78.78;101309.44;5013121;28;19925;-70
2023/05/24 05:21:12;;;;;;;;;;;;;;;7.47;79.29;101320.22;5012932;28;19940;-70
2023/05/24 05:24:15;;;;;;;;;;;;;;;7.54;79.10;101316.56;5015029;28;19936;-70
2023/05/24 05:27:18;;;;;;;;;;;;;;;7.53;80.12;101314.84;5016924;28;19924;-70
2023/05/24 05:30:21;;;;;;;;;;;;;;;7.49;80.70;101313.22;5016922;28;19967;-70
2023/05/24 05:33:25;;;;;;;;;;;;;;;7.66;80.74;101317.97;5016854;28;19959;-70
2023/05/24 05:36:27;;;;;;;;;;;;;;;7.83;80.63;101323.56;5016746;28;19920;-70
2023/05/24 05:39:30;;;;;;;;;;;;;;;8.01;80.10;101322.19;5016626;28;19920;-70
2023/05/24 05:42:33;;;;;;;;;;;;;;;8.14;79.74;101326.13;5004434;28;19924;-70
2023/05/24 05:45:36;;;;;;;;;;;;;;;8.24;79.80;101324.13;5016644;28;20007;-70
2023/05/24 05:48:39;;;;;;;;;;;;;;;8.27;80.00;101331.00;5016547;28;19936;-70
2023/05/24 05:51:43;;;;;;;;;;;;;;;8.35;80.08;101331.59;5016739;28;19920;-71
2023/05/24 05:54:47;;;;;;;;;;;;;;;8.53;78.96;101333.69;5016597;28;20346;-70
2023/05/24 05:57:50;;;;;;;;;;;;;;;8.64;78.64;101337.72;5016466;28;19930;-70
2023/05/24 06:00:53;;;;;;;;;;;;;;;8.77;78.38;101328.59;5016439;28;19927;-71
2023/05/24 06:03:56;;;;;;;;;;;;;;;8.91;78.02;101328.16;5016048;28;19925;-71
2023/05/24 06:06:59;;;;;;;;;;;;;;;9.05;77.32;101331.16;5016083;28;19921;-72
2023/05/24 06:10:02;;;;;;;;;;;;;;;9.14;76.40;101327.41;5016287;28;19968;-71
2023/05/24 06:13:06;;;;;;;;;;;;;;;9.26;75.90;101327.84;5016093;28;19919;-71
2023/05/24 06:16:09;;;;;;;;;;;;;;;9.40;74.50;101323.91;5015871;28;19944;-71
2023/05/24 06:19:12;;;;;;;;;;;;;;;9.57;76.23;101328.53;5016009;28;20012;-71
2023/05/24 06:22:15;;;;;;;;;;;;;;;9.67;73.09;101322.09;5015735;28;20336;-71
2023/05/24 06:25:19;;;;;;;;;;;;;;;9.65;69.36;101322.13;5015973;28;19924;-71
2023/05/24 06:28:22;;;;;;;;;;;;;;;9.82;69.88;101313.69;5003708;28;20336;-71
2023/05/24 06:31:25;;;;;;;;;;;;;;;9.92;70.17;101315.06;5015877;28;19967;-73
2023/05/24 06:34:28;;;;;;;;;;;;;;;9.76;69.73;101317.41;5015467;28;19933;-71
2023/05/24 06:37:32;;;;;;;;;;;;;;;9.94;67.94;101309.78;5015969;28;19959;-71
2023/05/24 06:40:35;;;;;;;;;;;;;;;9.81;66.72;101304.16;5015561;28;20087;-73
2023/05/24 06:43:39;;;;;;;;;;;;;;;10.18;68.41;101298.41;5015824;28;20389;-72
2023/05/24 06:46:42;;;;;;;;;;;;;;;10.04;67.18;101305.06;5015320;28;19920;-76
2023/05/24 06:49:46;;;;;;;;;;;;;;;10.19;66.59;101296.66;5015465;28;19921;-77
2023/05/24 06:52:49;;;;;;;;;;;;;;;10.43;67.54;101300.97;5015367;28;20004;-71
2023/05/24 06:55:52;;;;;;;;;;;;;;;10.61;65.98;101295.91;5015264;28;19927;-69
2023/05/24 06:58:56;;;;;;;;;;;;;;;10.58;64.65;101296.88;5015296;28;19920;-70
2023/05/24 07:01:59;;;;;;;;;;;;;;;10.66;64.68;101296.59;5015054;28;19966;-69
2023/05/24 07:05:02;;;;;;;;;;;;;;;10.66;63.23;101293.97;5015023;28;20488;-68
2023/05/24 07:08:05;;;;;;;;;;;;;;;10.84;62.80;101282.72;5015088;28;19920;-68
2023/05/24 07:11:09;;;;;;;;;;;;;;;10.78;62.22;101292.59;5014987;28;20388;-69
2023/05/24 07:14:12;;;;;;;;;;;;;;;10.88;62.38;101302.66;5015130;28;19983;-69
2023/05/24 07:17:14;;;;;;;;;;;;;;;10.92;61.09;101327.75;5015228;28;19994;-70
2023/05/24 07:20:17;;;;;;;;;;;;;;;10.85;61.67;101330.69;5014838;28;19928;-70
2023/05/24 07:23:20;;;;;;;;;;;;;;;10.91;62.26;101341.75;5014661;28;19924;-70
2023/05/24 07:26:23;;;;;;;;;;;;;;;11.10;61.85;101341.00;5014553;28;19924;-70
2023/05/24 07:29:27;;;;;;;;;;;;;;;11.16;60.88;101325.88;5014878;28;19924;-70
2023/05/24 07:32:31;;;;;;;;;;;;;;;11.19;61.33;101324.91;5014685;28;19920;-68
2023/05/24 07:35:35;;;;;;;;;;;;;;;10.99;59.47;101337.97;5014744;28;19919;-71
2023/05/24 07:38:38;;;;;;;;;;;;;;;10.61;59.27;101333.38;5014530;28;19921;-71
2023/05/24 07:41:41;;;;;;;;;;;;;;;10.54;61.42;101333.69;5014579;28;20289;-72
2023/05/24 07:44:44;;;;;;;;;;;;;;;10.78;62.14;101329.22;5014375;28;19920;-72
2023/05/24 07:47:47;;;;;;;;;;;;;;;10.87;61.17;101324.47;5014267;28;19936;-71
2023/05/24 07:50:51;;;;;;;;;;;;;;;11.08;60.06;101334.97;5014255;28;19935;-71
2023/05/24 07:53:59;;;;;;;;;;;;;;;11.30;59.22;101333.16;5014315;28;19983;-72
2023/05/24 07:57:06;;;;;;;;;;;;;;;11.47;59.61;101336.84;5014076;28;20403;-71
2023/05/24 08:00:13;;;;;;;;;;;;;;;11.45;56.95;101336.03;5014099;28;20288;-72
2023/05/24 08:03:17;;;;;;;;;;;;;;;11.29;56.38;101331.44;5013891;28;20309;-72
2023/05/24 08:06:20;;;;;;;;;;;;;;;11.43;57.40;101327.41;5014030;28;19939;-72
2023/05/24 08:09:26;;;;;;;;;;;;;;;11.52;56.26;101333.09;5014013;28;19936;-72
2023/05/24 08:12:33;;;;;;;;;;;;;;;11.56;55.41;101342.53;5014182;28;19921;-71
2023/05/24 08:15:41;;;;;;;;;;;;;;;11.35;56.79;101341.66;5013887;28;20384;-71
2023/05/24 08:18:45;;;;;;;;;;;;;;;11.11;56.92;101355.81;5014175;28;20324;-71
2023/05/24 08:21:50;;;;;;;;;;;;;;;11.36;55.86;101350.41;5013652;28;19975;-71
2023/05/24 08:24:55;;;;;;;;;;;;;;;11.18;55.39;101354.63;5013713;28;19920;-71
2023/05/24 08:27:59;;;;;;;;;;;;;;;10.99;55.71;101357.13;5013705;28;19923;-71
2023/05/24 08:31:03;;;;;;;;;;;;;;;11.13;55.29;101354.78;5013983;28;19939;-72
2023/05/24 08:34:07;;;;;;;;;;;;;;;11.49;55.25;101348.94;5013732;28;19979;-71
2023/05/24 08:37:14;;;;;;;;;;;;;;;11.62;54.03;101357.13;5013493;28;19971;-71
2023/05/24 08:40:22;;;;;;;;;;;;;;;11.61;54.40;101344.94;5013788;28;19921;-72
2023/05/24 08:43:28;;;;;;;;;;;;;;;11.43;54.45;101348.38;5013436;28;19946;-71
2023/05/24 08:46:35;;;;;;;;;;;;;;;11.81;55.72;101347.53;5013672;28;19976;-71
2023/05/24 08:49:41;;;;;;;;;;;;;;;12.06;55.12;101344.72;5013400;28;19920;-71
2023/05/24 08:52:45;;;;;;;;;;;;;;;11.57;53.99;101346.84;5013189;28;19921;-71
2023/05/24 08:55:48;;;;;;;;;;;;;;;11.43;56.03;101343.13;5013531;28;20433;-72
2023/05/24 08:59:01;;;;;;;;;;;;;;;11.38;56.25;101346.78;5012690;28;19934;-71
2023/05/24 09:02:05;;;;;;;;;;;;;;;11.33;55.82;101342.66;5011223;28;20016;-71
2023/05/24 09:05:13;;;;;;;;;;;;;;;11.19;55.99;101345.84;5012944;28;20000;-71
2023/05/24 09:08:17;;;;;;;;;;;;;;;11.28;56.78;101357.72;5012992;28;19920;-71
2023/05/24 09:11:21;;;;;;;;;;;;;;;11.51;57.44;101343.63;5013014;28;20387;-71
2023/05/24 09:14:24;;;;;;;;;;;;;;;11.63;56.69;101340.50;5013066;28;19963;-70
2023/05/24 09:17:30;;;;;;;;;;;;;;;11.90;56.13;101342.81;5013364;28;19959;-70
2023/05/24 09:20:34;;;;;;;;;;;;;;;11.83;54.83;101340.44;5012774;28;20440;-70
2023/05/24 09:23:37;;;;;;;;;;;;;;;11.82;55.76;101330.91;5013285;28;20007;-71
2023/05/24 09:26:40;;;;;;;;;;;;;;;11.98;54.73;101325.84;5013088;28;19929;-72
2023/05/24 09:29:48;;;;;;;;;;;;;;;12.25;54.52;101318.50;5013079;28;19995;-71
2023/05/24 09:32:55;;;;;;;;;;;;;;;12.57;54.14;101310.84;5012884;28;20333;-69
2023/05/24 09:36:00;;;;;;;;;;;;;;;12.93;54.32;101299.50;5012719;28;19925;-72
2023/05/24 09:39:10;;;;;;;;;;;;;;;12.89;53.45;101295.31;5012892;28;19940;-71
2023/05/24 09:42:23;;;;;;;;;;;;;;;12.91;52.65;101289.06;5012807;28;19924;-72
2023/05/24 09:45:26;;;;;;;;;;;;;;;12.63;53.04;101300.06;5012770;28;20008;-72
2023/05/24 09:48:30;;;;;;;;;;;;;;;12.60;52.31;101296.75;5012834;28;20415;-72
2023/05/24 09:51:36;;;;;;;;;;;;;;;12.85;51.59;101296.41;5012946;28;19920;-71
2023/05/24 09:54:40;;;;;;;;;;;;;;;12.56;51.83;101299.50;5012769;28;20336;-71
2023/05/24 09:57:44;;;;;;;;;;;;;;;12.71;51.59;101284.81;5012929;28;20325;-72
2023/05/24 10:00:47;;;;;;;;;;;;;;;13.09;51.33;101279.44;5012487;28;20285;-72
2023/05/24 10:03:55;;;;;;;;;;;;;;;13.26;50.16;101286.47;5012510;28;19924;-71
2023/05/24 10:06:58;;;;;;;;;;;;;;;13.22;49.90;101285.75;5012610;28;20012;-71
2023/05/24 10:10:03;;;;;;;;;;;;;;;12.96;52.09;101284.44;5012557;28;19915;-72
2023/05/24 10:13:06;;;;;;;;;;;;;;;13.01;50.79;101289.47;5016338;28;19920;-72
2023/05/24 10:16:09;;;;;;;;;;;;;;;12.85;51.07;101294.63;5016357;28;20380;-71
2023/05/24 10:19:12;;;;;;;;;;;;;;;12.71;52.17;101289.22;5016084;28;19928;-74
2023/05/24 10:22:16;;;;;;;;;;;;;;;12.98;52.74;101286.97;5016106;28;19968;-73
2023/05/24 10:25:26;;;;;;;;;;;;;;;13.32;51.92;101275.66;5015937;28;19920;-73
2023/05/24 10:28:29;;;;;;;;;;;;;;;13.39;51.84;101265.69;5015878;28;19983;-74
2023/05/24 10:31:35;;;;;;;;;;;;;;;13.47;51.08;101274.03;5016018;28;19921;-73
2023/05/24 10:34:38;;;;;;;;;;;;;;;13.26;51.88;101266.31;5015703;28;20289;-73
2023/05/24 10:37:41;;;;;;;;;;;;;;;13.32;51.43;101267.78;5016007;28;20012;-74
2023/05/24 10:40:44;;;;;;;;;;;;;;;13.60;51.47;101254.03;5015559;28;19932;-73
2023/05/24 10:43:48;;;;;;;;;;;;;;;13.97;50.87;101241.53;5015530;28;20048;-74
2023/05/24 10:47:10;;;;;;;;;;;;;;;14.05;49.27;101244.59;5015462;28;19920;-74
2023/05/24 10:50:17;;;;;;;;;;;;;;;14.00;50.59;101246.63;5015634;28;19928;-74
2023/05/24 10:53:21;;;;;;;;;;;;;;;14.37;49.14;101248.03;5015420;28;20381;-74
2023/05/24 10:56:26;;;;;;;;;;;;;;;14.53;48.71;101239.31;5015294;28;20451;-74
2023/05/24 10:59:32;;;;;;;;;;;;;;;14.32;48.59;101243.97;5015386;28;20416;-73
2023/05/24 11:02:35;;;;;;;;;;;;;;;14.02;47.73;101242.13;5015037;28;19923;-70
2023/05/24 11:05:48;;;;;;;;;;;;;;;13.79;48.27;101243.41;5015128;28;19999;-71
2023/05/24 11:08:51;;;;;;;;;;;;;;;13.75;49.78;101225.22;5014986;28;19959;-70
2023/05/24 11:11:54;;;;;;;;;;;;;;;13.94;48.82;101232.03;5014962;28;19960;-70
2023/05/24 11:14:59;;;;;;;;;;;;;;;14.29;48.42;101233.63;5014904;28;19921;-71
2023/05/24 11:18:07;;;;;;;;;;;;;;;14.14;50.06;101225.69;5014825;28;19967;-70
2023/05/24 11:21:13;;;;;;;;;;;;;;;14.31;49.83;101240.50;5014163;28;20392;-70
2023/05/24 11:24:17;;;;;;;;;;;;;;;14.37;48.88;101228.78;5014855;28;20340;-71
2023/05/24 11:27:21;;;;;;;;;;;;;;;14.40;48.65;101239.13;5003094;28;20396;-69
2023/05/24 11:30:28;;;;;;;;;;;;;;;14.46;48.49;101233.53;5014795;28;19967;-72
2023/05/24 11:33:32;;;;;;;;;;;;;;;14.21;46.23;101228.81;5014603;28;19929;-73
2023/05/24 11:36:36;;;;;;;;;;;;;;;14.31;47.00;101231.75;5014548;28;20044;-72
2023/05/24 11:39:40;;;;;;;;;;;;;;;14.45;46.66;101230.97;5014693;28;19920;-74
2023/05/24 11:42:46;;;;;;;;;;;;;;;14.24;47.21;101239.16;5002764;28;19967;-73
2023/05/24 11:45:50;;;;;;;;;;;;;;;14.43;47.17;101225.81;5014607;28;19936;-72
2023/05/24 11:48:57;;;;;;;;;;;;;;;14.63;47.47;101225.53;5014320;28;19920;-73
2023/05/24 11:52:00;;;;;;;;;;;;;;;14.40;47.27;101236.50;5014241;28;20003;-72
2023/05/24 11:55:03;;;;;;;;;;;;;;;14.29;47.76;101233.63;5014114;28;20044;-69
2023/05/24 11:58:10;;;;;;;;;;;;;;;14.32;48.60;101230.81;5015232;28;20312;-75
2023/05/24 12:01:26;;;;;;;;;;;;;;;14.62;48.03;101234.38;5014074;28;19980;-74
2023/05/24 12:04:29;;;;;;;;;;;;;;;14.39;47.81;101230.41;5013720;28;19987;-71
2023/05/24 12:07:33;;;;;;;;;;;;;;;14.25;46.73;101226.84;5014071;28;19979;-74
2023/05/24 12:10:36;;;;;;;;;;;;;;;14.40;47.88;101239.13;5013904;28;19919;-73
2023/05/24 12:13:39;;;;;;;;;;;;;;;14.36;47.02;101240.25;5014090;28;20008;-74
2023/05/24 12:16:44;;;;;;;;;;;;;;;14.53;46.60;101245.44;5014063;28;19920;-75
2023/05/24 12:19:48;;;;;;;;;;;;;;;14.30;47.31;101243.22;5013695;28;19936;-74
2023/05/24 12:22:53;;;;;;;;;;;;;;;14.59;46.55;101234.53;5012768;28;20273;-73
2023/05/24 12:25:58;;;;;;;;;;;;;;;14.58;46.96;101250.41;5012109;28;19935;-73
2023/05/24 12:29:25;;;;;;;;;;;;;;;14.09;47.61;101235.59;5012617;28;19920;-74
2023/05/24 12:32:29;;;;;;;;;;;;;;;13.88;47.78;101242.03;5014845;28;20328;-73
2023/05/24 12:35:42;;;;;;;;;;;;;;;14.29;47.60;101236.25;5013955;28;19968;-73
2023/05/24 12:38:45;;;;;;;;;;;;;;;13.87;48.02;101240.34;5013896;28;19968;-72
2023/05/24 12:41:51;;;;;;;;;;;;;;;13.86;47.94;101236.03;5013417;28;19924;-71
2023/05/24 12:44:55;;;;;;;;;;;;;;;13.80;49.73;101233.72;5013468;28;19992;-72
2023/05/24 12:48:00;;;;;;;;;;;;;;;13.85;48.69;101242.22;5013592;28;19968;-73
2023/05/24 12:51:03;;;;;;;;;;;;;;;13.57;47.71;101233.19;5013296;28;20345;-74
2023/05/24 12:54:06;;;;;;;;;;;;;;;13.71;48.28;101235.06;5013744;28;20011;-74
2023/05/24 12:57:10;;;;;;;;;;;;;;;13.86;47.66;101234.22;5013670;28;19971;-73
2023/05/24 13:00:14;;;;;;;;;;;;;;;14.11;46.97;101230.25;5013687;28;19921;-73
2023/05/24 13:03:17;;;;;;;;;;;;;;;14.09;46.75;101225.06;5012977;28;19924;-73
2023/05/24 13:06:21;;;;;;;;;;;;;;;14.35;47.37;101218.34;5012958;28;20361;-72
2023/05/24 13:09:24;;;;;;;;;;;;;;;14.72;47.94;101218.88;5013084;28;19920;-72
2023/05/24 13:12:28;;;;;;;;;;;;;;;15.08;45.14;101220.28;5013012;28;19959;-72
2023/05/24 13:15:31;;;;;;;;;;;;;;;15.10;45.12;101221.88;5012941;28;19920;-72
2023/05/24 13:18:34;;;;;;;;;;;;;;;15.32;44.28;101217.94;5013033;28;20423;-72
2023/05/24 13:21:37;;;;;;;;;;;;;;;15.32;44.25;101215.31;5000791;28;19924;-73
2023/05/24 13:24:42;;;;;;;;;;;;;;;15.16;44.54;101225.94;5013414;28;19967;-72
2023/05/24 13:27:47;;;;;;;;;;;;;;;14.98;44.97;101222.59;5012453;28;19921;-72
2023/05/24 13:30:50;;;;;;;;;;;;;;;15.04;44.20;101224.03;5013206;28;19935;-72
2023/05/24 13:33:54;;;;;;;;;;;;;;;15.07;44.29;101227.34;5012951;28;19967;-72
2023/05/24 13:36:59;;;;;;;;;;;;;;;14.81;44.25;101223.63;5013300;28;19924;-72
2023/05/24 13:40:04;;;;;;;;;;;;;;;14.84;45.39;101214.69;5012925;28;19967;-72
2023/05/24 13:43:11;;;;;;;;;;;;;;;14.88;45.64;101217.03;5012844;28;20154;-72
2023/05/24 13:46:36;;;;;;;;;;;;;;;14.86;45.77;101215.44;5016147;28;19919;-74
2023/05/24 13:49:40;;;;;;;;;;;;;;;14.98;45.25;101203.34;5016574;28;19921;-74
2023/05/24 13:52:43;;;;;;;;;;;;;;;14.86;45.87;101195.22;5016539;28;20012;-73
2023/05/24 13:55:48;;;;;;;;;;;;;;;14.99;45.34;101203.22;5016889;28;19920;-73
2023/05/24 13:58:52;;;;;;;;;;;;;;;15.37;44.31;101197.41;5016725;28;19967;-74
2023/05/24 14:01:56;;;;;;;;;;;;;;;15.51;43.37;101192.16;5016306;28;20374;-74
2023/05/24 14:04:59;;;;;;;;;;;;;;;15.76;42.49;101199.41;5016565;28;19989;-71
2023/05/24 14:08:05;;;;;;;;;;;;;;;15.63;42.33;101192.31;5016246;28;19968;-73
2023/05/24 14:11:11;;;;;;;;;;;;;;;16.09;42.13;101198.19;5016254;28;19979;-75
2023/05/24 14:14:18;;;;;;;;;;;;;;;15.83;40.62;101201.66;5015895;28;20004;-73
2023/05/24 14:17:22;;;;;;;;;;;;;;;15.59;42.19;101194.31;5017033;28;19987;-74
2023/05/24 14:20:36;;;;;;;;;;;;;;;15.50;42.50;101194.88;5015302;28;20002;-73
2023/05/24 14:23:39;;;;;;;;;;;;;;;15.45;42.23;101196.97;5015558;28;19940;-74
2023/05/24 14:26:42;;;;;;;;;;;;;;;15.51;43.53;101199.22;5015557;28;20305;-74
2023/05/24 14:29:46;;;;;;;;;;;;;;;15.18;44.13;101205.59;5015623;28;19920;-73
2023/05/24 14:32:50;;;;;;;;;;;;;;;14.74;44.20;101195.09;5014310;28;19979;-73
2023/05/24 14:35:53;;;;;;;;;;;;;;;14.65;44.78;101202.59;5015598;28;19952;-74
2023/05/24 14:38:56;;;;;;;;;;;;;;;14.63;46.04;101209.72;5016221;28;19924;-73
2023/05/24 14:41:59;;;;;;;;;;;;;;;14.39;45.21;101211.13;4992092;28;19924;-72
2023/05/24 14:45:03;;;;;;;;;;;;;;;14.56;45.27;101208.41;5015398;28;19967;-77
2023/05/24 14:48:10;;;;;;;;;;;;;;;14.78;45.73;101201.88;5015287;28;20301;-79
2023/05/24 14:51:13;;;;;;;;;;;;;;;14.76;45.81;101204.59;5014985;28;19920;-74
2023/05/24 14:54:16;;;;;;;;;;;;;;;14.93;46.00;101194.84;5015548;28;20372;-73
2023/05/24 14:57:20;;;;;;;;;;;;;;;15.29;44.83;101199.69;5014443;28;19920;-73
2023/05/24 15:00:25;;;;;;;;;;;;;;;16.41;41.72;101197.88;5015361;28;19960;-74
2023/05/24 15:03:28;;;;;;;;;;;;;;;19.08;37.95;101186.75;5015019;28;20622;-74
2023/05/24 15:06:34;;;;;;;;;;;;;;;21.37;34.16;101180.31;5014953;28;20040;-74
2023/05/24 15:09:37;;;;;;;;;;;;;;;20.83;32.84;101189.38;5014756;28;20435;-74
2023/05/24 15:12:41;;;;;;;;;;;;;;;21.31;32.86;101181.69;5014530;28;19967;-75
2023/05/24 15:15:44;;;;;;;;;;;;;;;21.82;33.36;101175.41;5015191;28;20321;-77
2023/05/24 15:18:47;;;;;;;;;;;;;;;21.50;31.42;101172.09;5014900;28;19920;-76
2023/05/24 15:21:50;;;;;;;;;;;;;;;22.73;30.98;101173.31;4991333;28;19964;-76
2023/05/24 15:24:56;;;;;;;;;;;;;;;24.08;29.84;101160.34;4991908;28;19925;-77
2023/05/24 15:28:00;;;;;;;;;;;;;;;24.96;26.10;101162.22;5014578;28;20293;-73
2023/05/24 15:31:04;;;;;;;;;;;;;;;19.55;32.30;101169.75;5014211;28;19919;-76
2023/05/24 15:34:07;;;;;;;;;;;;;;;18.56;35.79;101170.38;5013258;28;19920;-74
2023/05/24 15:37:10;;;;;;;;;;;;;;;18.08;36.33;101170.41;5012662;28;20017;-74
2023/05/24 15:40:13;;;;;;;;;;;;;;;17.74;38.33;101182.56;5014327;28;19932;-74
2023/05/24 15:43:17;;;;;;;;;;;;;;;17.16;39.83;101182.25;5014432;28;20265;-75